Etusivu
METAR-TAF:

METAR-TAF

Lentoasemat :

Corinth, Mississippi, Yhdysvallat

Leveyspiiri: 34-54-54N, Pituuspiiri: 088-36-13W, korkeus merenpinnasta: 130 m

Tämänhetkinen sää

Tämä raportti tehtiin 15 minuuttia sitten, kello 09.15 UTC
Tuuli 4 kn kaakosta
Lämpötila 0°C
Kosteus 93%
Ilmanpaine 1031 hPa
Näkyvyys: 16.1 km
selkeää

METAR: KCRX 080915Z AUTO 14004KT 10SM CLR 00/M01 A3045 RMK AO2

Aika: 03:30 (09:30 UTC)


TAF: puuttuu

Säähavainnot ja -ennusteet yli 4000 lentoasemalta (METAR- ja TAF-raportit).

Käytössä olevat sääasemat on merkitty karttaan keltaisilla ja punaisilla pisteillä.

Aseta hiiri pisteen päälle nähdäksesi sääaseman nimen.

Klikkaa sitten nähdäksesi säähavainnot ja -ennusteet.

Kartan vaihtaminen: klikkaa mustalla rastilla varustettuja vihreitä pisteitä, niin voit zoomata sisään; viivalla varustettua vihreää pistettä, niin voit zoomata ulos tai vihreitä nuolia, niin pääset viereisille kartoille.


METAR-TAF: